Time;durP1;ratioP1;P1;durP2;ratioP2;P2;SDS_P1;SDS_P2;PMS_P1;PMS_P2;Temp;Humidity;BMP_temperature;BMP_pressure;BME280_temperature;BME280_humidity;BME280_pressure;Samples;Min_cycle;Max_cycle;Signal;HPM_P1;HPM_P2
2022/05/03 00:01:29;;;;;;;;;36.00;33.00;;;;;16.30;44.03;101357.31;5062203;28;45294;-71
2022/05/03 00:04:21;;;;;;;;;40.75;33.50;;;;;16.23;44.05;101345.09;5066862;28;45300;-71
2022/05/03 00:07:31;;;;;;;;;40.50;32.75;;;;;16.24;44.03;101354.94;5075323;28;45409;-71
2022/05/03 00:10:08;;;;;;;;;34.75;31.00;;;;;16.18;43.99;101350.69;5062786;28;45314;-71
2022/05/03 00:12:56;;;;;;;;;32.50;29.25;;;;;16.16;44.08;101349.88;5061965;28;45789;-71
2022/05/03 00:15:22;;;;;;;;;40.00;34.00;;;;;16.11;44.33;101341.16;5075446;28;45391;-71
2022/05/03 00:17:48;;;;;;;;;38.75;34.00;;;;;16.12;44.05;101342.88;5077220;28;45552;-71
2022/05/03 00:20:14;;;;;;;;;34.25;32.00;;;;;16.11;44.25;101333.06;5090883;27;48289;-71
2022/05/03 00:22:41;;;;;;;;;31.50;30.25;;;;;16.15;44.22;101333.78;5061333;28;45665;-71
2022/05/03 00:25:07;;;;;;;;;33.75;31.25;;;;;16.15;44.49;101337.34;5061340;28;45195;-71
2022/05/03 00:27:34;;;;;;;;;33.50;31.25;;;;;16.17;44.35;101337.28;5064380;28;45476;-71
2022/05/03 00:29:59;;;;;;;;;40.50;35.00;;;;;16.17;44.23;101338.19;5064965;27;45427;-71
2022/05/03 00:32:26;;;;;;;;;34.25;31.75;;;;;16.17;44.35;101338.19;5081836;28;45305;-71
2022/05/03 00:34:53;;;;;;;;;32.25;30.00;;;;;16.16;44.40;101339.13;5063799;28;45337;-71
2022/05/03 00:37:18;;;;;;;;;40.50;35.75;;;;;16.09;44.24;101333.13;5061321;28;45496;-70
2022/05/03 00:39:44;;;;;;;;;32.75;29.75;;;;;16.05;44.18;101330.66;5070601;28;46278;-71
2022/05/03 00:42:42;;;;;;;;;39.25;33.25;;;;;16.02;44.20;101330.78;5081573;28;45886;-71
2022/05/03 00:45:29;;;;;;;;;33.25;31.00;;;;;16.02;44.11;101329.00;5066308;28;45343;-71
2022/05/03 00:48:09;;;;;;;;;35.00;31.75;;;;;16.01;44.39;101323.66;5074763;28;45318;-71
2022/05/03 00:50:53;;;;;;;;;44.50;36.50;;;;;16.01;44.37;101329.91;5061042;28;45407;-71
2022/05/03 00:53:24;;;;;;;;;35.25;31.75;;;;;15.95;44.23;101330.19;5061103;28;45665;-71
2022/05/03 00:56:12;;;;;;;;;45.00;36.25;;;;;15.88;44.45;101326.91;5060951;28;45352;-71
2022/05/03 00:58:55;;;;;;;;;38.75;33.50;;;;;15.85;44.45;101320.78;5061090;28;45166;-71
2022/05/03 01:01:56;;;;;;;;;31.75;31.00;;;;;15.86;44.53;101320.72;5061082;28;45394;-71
2022/05/03 01:04:31;;;;;;;;;42.25;34.50;;;;;15.81;44.37;101314.69;5070127;28;45580;-71
2022/05/03 01:07:22;;;;;;;;;36.25;32.50;;;;;15.84;44.63;101328.00;5060807;28;45413;-71
2022/05/03 01:10:04;;;;;;;;;40.25;33.75;;;;;15.79;44.47;101323.78;5071472;28;45917;-71
2022/05/03 01:13:01;;;;;;;;;39.75;33.50;;;;;15.80;44.68;101325.50;5072206;28;45341;-71
2022/05/03 01:15:30;;;;;;;;;40.25;33.50;;;;;15.76;44.70;101330.16;5059413;28;45395;-71
2022/05/03 01:18:08;;;;;;;;;42.50;35.75;;;;;15.71;44.75;101324.06;5069622;28;45331;-71
2022/05/03 01:20:52;;;;;;;;;37.50;34.00;;;;;15.66;44.70;101324.28;5060825;28;45307;-71
2022/05/03 01:23:51;;;;;;;;;36.50;32.25;;;;;15.64;44.96;101325.31;5060279;28;45479;-71
2022/05/03 01:26:22;;;;;;;;;39.00;34.00;;;;;15.58;44.88;101312.97;5062931;28;45388;-71
2022/05/03 01:29:32;;;;;;;;;42.75;35.75;;;;;15.60;44.98;101316.47;5076767;28;45439;-71
2022/05/03 01:32:07;;;;;;;;;34.75;32.25;;;;;15.59;44.66;101317.41;5070098;28;45721;-71
2022/05/03 01:34:34;;;;;;;;;37.00;33.25;;;;;15.56;44.83;101309.47;5064200;28;47206;-71
2022/05/03 01:36:59;;;;;;;;;37.50;33.75;;;;;15.59;44.90;101317.41;5060227;28;45560;-71
2022/05/03 01:39:37;;;;;;;;;34.75;32.25;;;;;15.49;44.97;101306.19;5070699;28;45157;-70
2022/05/03 01:42:26;;;;;;;;;38.00;31.00;;;;;15.44;44.93;101305.53;5079741;28;45500;-71
2022/05/03 01:45:09;;;;;;;;;35.75;32.25;;;;;15.38;45.05;101303.97;5058384;28;47198;-71
2022/05/03 01:48:01;;;;;;;;;40.25;33.50;;;;;15.41;45.06;101312.84;5060403;28;45325;-71
2022/05/03 01:50:26;;;;;;;;;38.75;34.25;;;;;15.37;45.25;101312.97;5060418;28;45261;-71
2022/05/03 01:53:21;;;;;;;;;29.00;29.00;;;;;15.36;45.25;101310.34;5064740;28;45438;-71
2022/05/03 01:56:22;;;;;;;;;36.00;33.00;;;;;15.37;45.36;101304.03;5055991;28;45186;-71
2022/05/03 01:59:16;;;;;;;;;35.50;32.25;;;;;15.39;45.34;101302.16;5042831;28;45264;-71
2022/05/03 02:02:04;;;;;;;;;35.50;32.50;;;;;15.36;44.99;101294.22;5060357;28;45248;-71
2022/05/03 02:04:44;;;;;;;;;31.25;29.75;;;;;15.35;45.00;101297.84;5069704;28;45422;-71
2022/05/03 02:07:39;;;;;;;;;31.75;31.00;;;;;15.36;45.51;101294.22;5073310;28;46189;-71
2022/05/03 02:10:08;;;;;;;;;32.75;31.00;;;;;15.35;45.28;101298.72;5059429;27;45365;-71
2022/05/03 02:12:34;;;;;;;;;33.00;31.50;;;;;15.27;45.18;101290.13;5071421;28;45322;-70
2022/05/03 02:14:59;;;;;;;;;33.75;32.25;;;;;15.28;45.42;101296.34;5059950;28;45235;-71
2022/05/03 02:17:43;;;;;;;;;33.00;30.00;;;;;15.23;45.22;101293.88;5065560;28;47961;-71
2022/05/03 02:20:37;;;;;;;;;32.50;30.50;;;;;15.23;45.54;101301.94;5060376;28;45631;-71
2022/05/03 02:23:21;;;;;;;;;33.50;32.00;;;;;15.23;45.41;101296.56;5059536;28;45654;-71
2022/05/03 02:26:31;;;;;;;;;35.75;31.50;;;;;15.22;45.38;101310.06;5059633;28;45417;-71
2022/05/03 02:29:25;;;;;;;;;35.75;31.75;;;;;15.14;45.56;101316.66;5017408;28;45357;-71
2022/05/03 02:32:03;;;;;;;;;24.75;22.75;;;;;15.11;45.40;101313.22;5037314;28;45383;-71
2022/05/03 02:34:43;;;;;;;;;34.50;32.75;;;;;15.05;45.72;101306.31;5068942;27;45365;-71
2022/05/03 02:37:14;;;;;;;;;33.25;30.50;;;;;15.01;45.74;101310.03;5059587;28;45339;-71
2022/05/03 02:39:50;;;;;;;;;38.25;32.50;;;;;14.97;45.81;101309.28;5075064;28;48379;-71
2022/05/03 02:42:16;;;;;;;;;35.00;30.50;;;;;14.94;45.63;101303.19;5059579;28;45401;-71
2022/05/03 02:44:43;;;;;;;;;34.50;31.75;;;;;15.03;45.61;101309.97;5059706;28;45361;-71
2022/05/03 02:47:13;;;;;;;;;33.25;30.25;;;;;15.01;45.59;101312.72;5059176;28;45305;-71
2022/05/03 02:49:57;;;;;;;;;33.25;31.50;;;;;14.99;45.87;101310.09;5062531;28;46415;-71
2022/05/03 02:52:41;;;;;;;;;29.25;26.25;;;;;14.98;45.83;101305.69;5059372;28;45408;-71
2022/05/03 02:55:12;;;;;;;;;31.50;28.00;;;;;14.97;45.90;101309.28;5059624;28;45242;-71
2022/05/03 02:57:47;;;;;;;;;37.00;33.75;;;;;14.92;45.86;101305.94;5061658;28;45430;-71
2022/05/03 03:03:19;;;;;;;;;37.75;33.50;;;;;14.92;45.86;101314.00;5063220;28;45584;-71
2022/05/03 03:05:59;;;;;;;;;35.00;31.25;;;;;14.86;45.87;101305.31;5067081;28;45418;-71
2022/05/03 03:08:27;;;;;;;;;35.25;31.25;;;;;14.91;46.12;101309.53;5065054;28;45351;-70
2022/05/03 03:11:02;;;;;;;;;24.25;22.75;;;;;14.90;45.70;101301.53;5070111;28;45705;-71
2022/05/03 03:14:10;;;;;;;;;36.25;28.00;;;;;14.90;45.99;101312.28;5066108;28;45244;-71
2022/05/03 03:16:44;;;;;;;;;29.50;27.00;;;;;14.89;45.97;101305.19;5077242;27;45445;-71
2022/05/03 03:19:47;;;;;;;;;30.50;29.25;;;;;14.91;45.97;101308.69;5072334;28;45448;-71
2022/05/03 03:22:14;;;;;;;;;39.75;33.25;;;;;14.88;45.85;101301.59;5069005;28;45402;-71
2022/05/03 03:24:40;;;;;;;;;35.50;31.50;;;;;14.84;45.93;101291.06;5062244;28;45230;-71
2022/05/03 03:27:08;;;;;;;;;41.25;32.75;;;;;14.94;46.00;101311.25;5062568;28;45338;-71
2022/05/03 03:29:36;;;;;;;;;38.00;33.00;;;;;14.94;45.71;101305.88;5062493;27;45420;-71
2022/05/03 03:32:04;;;;;;;;;36.75;33.50;;;;;14.95;45.83;101311.19;5069980;28;46431;-71
2022/05/03 03:34:30;;;;;;;;;35.75;32.75;;;;;14.91;45.70;101306.84;5068012;28;45533;-71
2022/05/03 03:37:01;;;;;;;;;37.00;31.00;;;;;14.85;45.98;101298.16;5071226;28;45481;-71
2022/05/03 03:39:31;;;;;;;;;39.75;35.25;;;;;14.82;45.83;101302.75;5075285;28;45438;-71
2022/05/03 03:42:02;;;;;;;;;34.25;32.00;;;;;14.76;46.05;101294.06;5082365;28;45352;-71
2022/05/03 03:44:28;;;;;;;;;31.25;30.00;;;;;14.78;45.95;101295.75;5064206;28;45319;-71
2022/05/03 03:46:54;;;;;;;;;34.25;31.75;;;;;14.80;46.23;101299.25;5071906;28;45386;-71
2022/05/03 03:49:20;;;;;;;;;35.25;31.00;;;;;14.80;46.08;101295.66;5077780;28;45610;-71
2022/05/03 03:51:47;;;;;;;;;32.50;31.25;;;;;14.80;46.11;101296.56;5072507;28;45322;-71
2022/05/03 03:54:13;;;;;;;;;32.00;29.00;;;;;14.76;46.25;101288.69;5064680;28;45767;-71
2022/05/03 03:56:39;;;;;;;;;35.75;33.00;;;;;14.78;45.74;101298.44;5062270;28;45405;-71
2022/05/03 03:59:05;;;;;;;;;38.00;32.50;;;;;14.79;46.05;101293.94;5060657;28;45460;-71
2022/05/03 04:01:31;;;;;;;;;34.00;32.25;;;;;14.72;46.07;101290.63;5061873;28;45406;-71
2022/05/03 04:03:57;;;;;;;;;33.75;31.00;;;;;14.73;45.88;101299.56;5065786;28;45336;-71
2022/05/03 04:06:23;;;;;;;;;37.00;32.25;;;;;14.72;46.01;101297.81;5060923;28;45319;-71
2022/05/03 04:08:48;;;;;;;;;33.25;30.25;;;;;14.71;46.04;101302.31;5061307;28;45649;-71
2022/05/03 04:11:17;;;;;;;;;40.25;34.75;;;;;14.70;45.92;101300.56;5061478;28;45262;-71
2022/05/03 04:13:46;;;;;;;;;30.50;28.50;;;;;14.73;46.25;101296.88;5061742;28;45337;-71
2022/05/03 04:16:11;;;;;;;;;35.00;32.50;;;;;14.70;46.19;101297.88;5066284;28;45654;-71
2022/05/03 04:18:46;;;;;;;;;35.25;33.25;;;;;14.69;46.05;101293.44;5062325;28;45401;-71
2022/05/03 04:21:16;;;;;;;;;41.50;34.00;;;;;14.61;46.29;101291.03;5061552;28;46208;-70
2022/05/03 04:23:43;;;;;;;;;36.75;33.50;;;;;14.62;45.81;101297.31;5069778;28;45252;-71
2022/05/03 04:26:11;;;;;;;;;40.00;33.00;;;;;14.56;46.23;101294.84;5061339;28;45348;-71
2022/05/03 04:28:37;;;;;;;;;39.25;34.00;;;;;14.61;46.33;101300.94;5061697;28;45528;-71
2022/05/03 04:31:03;;;;;;;;;32.50;31.00;;;;;14.60;46.26;101304.53;5074132;28;46366;-71
2022/05/03 04:33:28;;;;;;;;;42.25;34.75;;;;;14.55;46.50;101306.50;5075627;28;45197;-71
2022/05/03 04:35:54;;;;;;;;;39.75;34.00;;;;;14.44;46.18;101296.19;5068980;28;45159;-71
2022/05/03 04:38:19;;;;;;;;;37.75;32.25;;;;;14.53;46.48;101306.56;5065848;28;45276;-71
2022/05/03 04:40:45;;;;;;;;;37.75;33.50;;;;;14.49;46.50;101299.56;5081217;28;45305;-71
2022/05/03 04:43:11;;;;;;;;;35.25;33.25;;;;;14.52;46.44;101310.22;5076915;28;45188;-71
2022/05/03 04:45:36;;;;;;;;;33.00;31.75;;;;;14.49;46.58;101307.63;5071697;28;45380;-71
2022/05/03 04:48:02;;;;;;;;;32.50;28.75;;;;;14.44;46.61;101305.13;5061269;28;45208;-72
2022/05/03 04:50:27;;;;;;;;;20.25;17.25;;;;;14.47;46.62;101301.47;5061280;28;45518;-71
2022/05/03 04:52:52;;;;;;;;;32.75;30.75;;;;;14.43;46.56;101297.13;5061074;28;45354;-71
2022/05/03 04:55:18;;;;;;;;;36.75;29.25;;;;;14.46;46.56;101303.25;5061070;28;45269;-71
2022/05/03 04:57:43;;;;;;;;;33.25;31.00;;;;;14.48;46.71;101313.06;5061033;28;45334;-71
2022/05/03 05:00:09;;;;;;;;;39.50;34.25;;;;;14.46;46.64;101307.75;5061034;28;45970;-71
2022/05/03 05:02:34;;;;;;;;;38.75;33.25;;;;;14.42;46.66;101306.13;5060962;28;45310;-71
2022/05/03 05:05:00;;;;;;;;;38.75;33.75;;;;;14.45;46.40;101312.25;5065019;28;45328;-71
2022/05/03 05:07:25;;;;;;;;;34.75;31.75;;;;;14.44;46.69;101312.31;5074191;28;45509;-71
2022/05/03 05:12:34;;;;;;;;;28.25;24.50;;;;;14.36;46.64;101301.00;5069913;28;45860;-71
2022/05/03 05:15:00;;;;;;;;;45.50;36.00;;;;;14.46;46.81;101321.19;5065287;28;45410;-71
2022/05/03 05:17:25;;;;;;;;;32.00;29.50;;;;;14.44;46.75;101318.56;5061573;28;45414;-71
2022/05/03 05:19:50;;;;;;;;;44.25;36.25;;;;;14.45;47.09;101328.38;5059952;28;46260;-72
2022/05/03 05:22:16;;;;;;;;;42.00;36.00;;;;;14.30;46.74;101302.13;5062833;28;45391;-81
2022/05/03 05:24:41;;;;;;;;;41.75;35.75;;;;;14.31;47.09;101322.66;5062475;28;45481;-67
2022/05/03 05:27:07;;;;;;;;;42.00;33.00;;;;;14.28;47.25;101338.88;5060723;28;45389;-67
2022/05/03 05:29:33;;;;;;;;;40.50;35.00;;;;;14.23;47.10;101328.34;5060150;27;45214;-66
2022/05/03 05:31:58;;;;;;;;;35.50;32.50;;;;;14.24;47.11;101332.75;5074784;28;45416;-67
2022/05/03 05:34:24;;;;;;;;;35.75;33.25;;;;;14.23;47.31;101328.34;5061808;28;45142;-67
2022/05/03 05:36:49;;;;;;;;;38.75;33.00;;;;;14.22;47.27;101329.25;5063496;28;45163;-67
2022/05/03 05:39:14;;;;;;;;;40.75;34.25;;;;;14.30;47.21;101341.50;5072547;28;46242;-66
2022/05/03 05:41:40;;;;;;;;;41.75;33.75;;;;;14.23;47.33;101332.81;5077411;28;45298;-66
2022/05/03 05:44:05;;;;;;;;;45.25;37.50;;;;;14.32;47.37;101350.41;5068907;28;45464;-67
2022/05/03 05:46:31;;;;;;;;;34.75;32.25;;;;;14.32;47.49;101345.03;5066283;28;45231;-67
2022/05/03 05:48:56;;;;;;;;;38.50;33.00;;;;;14.27;47.29;101339.84;5071274;28;45859;-67
2022/05/03 05:51:21;;;;;;;;;39.00;33.25;;;;;14.29;47.55;101339.78;5067376;28;45462;-67
2022/05/03 05:53:47;;;;;;;;;41.75;34.25;;;;;14.29;47.21;101348.69;5076833;28;45428;-68
2022/05/03 05:56:14;;;;;;;;;36.50;31.75;;;;;14.25;47.08;101337.22;5066125;28;45354;-68
2022/05/03 05:58:39;;;;;;;;;37.00;32.25;;;;;14.25;47.37;101339.03;5070786;28;46164;-67
2022/05/03 06:01:05;;;;;;;;;38.00;34.00;;;;;14.23;47.51;101333.72;5064216;28;45311;-68
2022/05/03 06:03:32;;;;;;;;;37.25;33.25;;;;;14.30;47.47;101339.72;5063975;28;45375;-68
2022/05/03 06:05:59;;;;;;;;;38.00;34.00;;;;;14.29;47.51;101348.69;5066654;28;45602;-68
2022/05/03 06:08:25;;;;;;;;;36.75;33.25;;;;;14.35;47.71;101353.84;5060618;28;45477;-68
2022/05/03 06:10:50;;;;;;;;;38.50;33.50;;;;;14.34;47.58;101352.09;5064784;28;45305;-67
2022/05/03 06:13:17;;;;;;;;;32.50;31.25;;;;;14.32;47.56;101362.00;5059122;28;45404;-67
2022/05/03 06:15:42;;;;;;;;;36.75;33.25;;;;;14.34;47.51;101359.28;5070719;28;45321;-67
2022/05/03 06:18:08;;;;;;;;;38.50;31.25;;;;;14.36;47.82;101365.44;5077862;28;45977;-67
2022/05/03 06:20:35;;;;;;;;;27.50;25.00;;;;;14.38;47.74;101358.22;5067865;28;45626;-66
2022/05/03 06:23:00;;;;;;;;;37.50;33.25;;;;;14.35;47.72;101358.31;5063960;28;45591;-67
2022/05/03 06:25:25;;;;;;;;;43.25;34.25;;;;;14.35;47.77;101361.91;5063577;28;45614;-67
2022/05/03 06:27:51;;;;;;;;;42.50;34.50;;;;;14.35;47.78;101369.06;5071874;28;46280;-67
2022/05/03 06:30:16;;;;;;;;;35.50;32.00;;;;;14.35;47.88;101369.06;5070202;28;45374;-67
2022/05/03 06:32:43;;;;;;;;;40.75;35.50;;;;;14.36;47.74;101371.69;5074397;28;45411;-67
2022/05/03 06:35:12;;;;;;;;;34.50;30.75;;;;;14.29;47.36;101359.44;5073508;28;45667;-67
2022/05/03 06:37:39;;;;;;;;;37.25;31.25;;;;;14.36;47.85;101365.44;5064791;28;46066;-67
2022/05/03 06:40:09;;;;;;;;;37.25;33.00;;;;;14.33;47.58;101361.06;5072757;28;45792;-67
2022/05/03 06:42:37;;;;;;;;;42.75;37.00;;;;;14.43;47.66;101369.66;5084853;28;45371;-67
2022/05/03 06:45:03;;;;;;;;;40.25;34.25;;;;;14.43;47.33;101378.59;5076831;27;45521;-67
2022/05/03 06:47:29;;;;;;;;;41.25;33.75;;;;;14.34;47.75;101361.97;5081869;28;45443;-68
2022/05/03 06:49:55;;;;;;;;;43.00;34.75;;;;;14.35;47.77;101375.34;5065052;28;45386;-68
2022/05/03 06:52:20;;;;;;;;;41.00;34.00;;;;;14.36;47.94;101370.81;5064840;28;45410;-68
2022/05/03 06:54:45;;;;;;;;;38.25;33.25;;;;;14.33;47.81;101366.44;5064363;28;45536;-68
2022/05/03 06:57:11;;;;;;;;;40.25;34.75;;;;;14.34;47.93;101370.88;5068828;28;45437;-68
2022/05/03 06:59:36;;;;;;;;;36.75;32.50;;;;;14.35;47.84;101375.34;5073583;28;45393;-68
2022/05/03 07:02:01;;;;;;;;;41.00;34.50;;;;;14.31;47.82;101375.50;5078561;28;45307;-69
2022/05/03 07:04:27;;;;;;;;;44.00;36.00;;;;;14.33;48.15;101373.63;5066216;28;45460;-66
2022/05/03 07:06:52;;;;;;;;;30.25;28.25;;;;;14.24;48.01;101364.97;5073973;28;46193;-70
2022/05/03 07:09:17;;;;;;;;;43.50;34.25;;;;;14.30;48.24;101374.63;5073554;28;45342;-69
2022/05/03 07:11:43;;;;;;;;;41.25;36.75;;;;;14.31;48.12;101376.38;5060250;28;45534;-73
2022/05/03 07:14:08;;;;;;;;;46.50;39.00;;;;;14.27;47.96;101377.44;5069714;27;45690;-72
2022/05/03 07:16:33;;;;;;;;;39.25;33.00;;;;;14.22;48.25;101382.97;5071692;27;47958;-72
2022/05/03 07:24:27;;;;;;;;;45.25;36.50;;;;;14.18;48.34;101392.09;5068828;27;45733;-72
2022/05/03 07:26:52;;;;;;;;;50.25;37.75;;;;;14.21;48.21;101389.25;5075568;28;45467;-72
2022/05/03 07:29:17;;;;;;;;;42.25;36.75;;;;;14.16;48.43;101383.19;5077933;28;45564;-72
2022/05/03 07:31:43;;;;;;;;;39.75;35.75;;;;;14.14;48.30;101397.63;5080908;28;45343;-72
2022/05/03 07:34:09;;;;;;;;;38.00;34.00;;;;;14.12;48.39;101394.97;5064521;28;45628;-73
2022/05/03 07:36:34;;;;;;;;;38.50;33.00;;;;;14.09;48.31;101384.34;5066495;28;46396;-73
2022/05/03 07:38:59;;;;;;;;;42.50;35.00;;;;;14.19;48.61;101395.63;5069520;27;47047;-73
2022/05/03 07:41:25;;;;;;;;;42.75;35.75;;;;;14.17;48.47;101392.13;5064571;28;45261;-72
2022/05/03 07:43:50;;;;;;;;;43.50;35.25;;;;;14.16;48.30;101383.19;5062842;28;45647;-72
2022/05/03 07:46:16;;;;;;;;;43.25;35.50;;;;;14.19;48.69;101393.81;5060839;28;45572;-72
2022/05/03 07:48:41;;;;;;;;;40.50;36.75;;;;;14.22;48.50;101398.22;5069034;28;45544;-72
2022/05/03 07:51:07;;;;;;;;;38.50;33.75;;;;;14.15;48.64;101386.81;5061056;27;45583;-72
2022/05/03 07:53:32;;;;;;;;;41.50;34.75;;;;;14.22;48.59;101400.91;5073985;28;45321;-72
2022/05/03 07:55:58;;;;;;;;;34.25;31.00;;;;;14.26;48.57;101387.28;5060811;28;45489;-73
2022/05/03 07:58:23;;;;;;;;;37.50;34.25;;;;;14.33;48.40;101384.38;5077324;28;45345;-73
2022/05/03 08:00:49;;;;;;;;;40.25;32.75;;;;;14.38;48.36;101393.13;5066065;28;45401;-73
2022/05/03 08:03:16;;;;;;;;;39.75;33.50;;;;;14.41;48.70;101396.56;5071673;28;45303;-72
2022/05/03 08:05:42;;;;;;;;;41.75;36.25;;;;;14.40;48.70;101391.25;5059164;28;47703;-72
2022/05/03 08:08:07;;;;;;;;;37.50;33.25;;;;;14.46;48.26;101394.56;5059457;28;45402;-73
2022/05/03 08:10:33;;;;;;;;;34.50;32.00;;;;;14.48;48.43;101399.03;5063962;28;45400;-73
2022/05/03 08:12:58;;;;;;;;;36.25;33.00;;;;;14.46;48.53;101405.31;5070814;28;45591;-73
2022/05/03 08:15:23;;;;;;;;;43.00;36.50;;;;;14.42;48.39;101395.63;5074429;28;45431;-73
2022/05/03 08:17:49;;;;;;;;;37.00;34.00;;;;;14.46;48.84;101399.09;5071397;28;45524;-73
2022/05/03 08:20:15;;;;;;;;;39.00;33.75;;;;;14.52;48.78;101400.69;5078597;27;45477;-73
2022/05/03 08:22:42;;;;;;;;;38.25;33.00;;;;;14.53;48.53;101405.97;5060869;27;45405;-73
2022/05/03 08:25:08;;;;;;;;;39.25;33.00;;;;;14.56;48.33;101399.59;5058813;28;46561;-72
2022/05/03 08:27:37;;;;;;;;;39.50;34.25;;;;;14.58;48.36;101397.72;5076885;28;45405;-72
2022/05/03 08:30:03;;;;;;;;;39.25;33.75;;;;;14.64;48.58;101405.59;5069760;27;45323;-73
2022/05/03 08:32:29;;;;;;;;;32.50;29.00;;;;;14.69;48.30;101408.13;5075048;28;45805;-73
2022/05/03 08:34:54;;;;;;;;;38.00;33.25;;;;;14.72;48.32;101406.19;5067241;28;46393;-73
2022/05/03 08:42:48;;;;;;;;;36.00;33.00;;;;;14.81;48.37;101407.63;5076676;28;45317;-73
2022/05/03 08:45:13;;;;;;;;;29.00;28.50;;;;;14.88;48.19;101405.56;5064997;28;46343;-73
2022/05/03 08:47:41;;;;;;;;;36.50;33.50;;;;;14.92;48.67;101404.53;5060581;27;45310;-73
2022/05/03 08:50:09;;;;;;;;;33.75;31.50;;;;;14.96;48.31;101398.06;5066712;28;45583;-73
2022/05/03 08:53:04;;;;;;;;;37.75;33.50;;;;;15.05;48.26;101400.41;5066730;27;45636;-73
2022/05/03 08:55:30;;;;;;;;;34.50;31.00;;;;;15.11;47.65;101402.81;5078760;27;47723;-67
2022/05/03 08:57:55;;;;;;;;;38.25;34.50;;;;;15.12;47.64;101392.97;5065030;28;45432;-68
2022/05/03 09:00:21;;;;;;;;;32.00;30.75;;;;;15.24;47.81;101402.34;5067543;28;45786;-67
2022/05/03 09:02:52;;;;;;;;;32.00;29.75;;;;;15.28;47.48;101407.50;5066063;28;45558;-68
2022/05/03 09:05:18;;;;;;;;;34.75;32.25;;;;;15.35;47.74;101409.00;5063661;28;46399;-70
2022/05/03 09:07:54;;;;;;;;;32.50;29.75;;;;;15.40;47.30;101414.19;5066760;28;45768;-73
2022/05/03 09:10:25;;;;;;;;;36.00;30.75;;;;;15.45;47.39;101417.59;5066118;28;45579;-73
2022/05/03 09:12:51;;;;;;;;;31.00;29.75;;;;;15.51;47.13;101408.38;5061793;28;45450;-73
2022/05/03 09:15:33;;;;;;;;;33.00;30.25;;;;;15.54;46.91;101401.03;5063426;27;45260;-73
2022/05/03 09:18:00;;;;;;;;;33.25;29.00;;;;;15.63;46.79;101412.34;5071161;28;45447;-73
2022/05/03 09:26:14;;;;;;;;;34.00;31.75;;;;;15.77;46.76;101407.28;5069688;28;45558;-73
2022/05/03 09:28:45;;;;;;;;;33.00;31.50;;;;;15.81;46.93;101411.56;5059738;28;45683;-73
2022/05/03 09:31:11;;;;;;;;;32.50;30.00;;;;;15.85;46.58;101407.78;5074878;28;45494;-73
2022/05/03 09:33:37;;;;;;;;;34.50;29.50;;;;;15.84;46.89;101397.13;5071761;28;45364;-73
2022/05/03 09:36:10;;;;;;;;;42.75;33.00;;;;;15.91;46.72;101393.22;5068720;28;45627;-73
2022/05/03 09:38:51;;;;;;;;;40.00;32.50;;;;;16.01;46.91;101396.38;5064932;27;45441;-73
2022/05/03 09:41:17;;;;;;;;;34.25;30.00;;;;;16.05;46.72;101384.50;5076493;28;47101;-73
2022/05/03 09:44:04;;;;;;;;;32.50;30.50;;;;;16.13;46.45;101381.47;5075330;28;45497;-73
2022/05/03 09:46:31;;;;;;;;;34.00;30.00;;;;;16.20;46.51;101383.81;5065409;28;46994;-73
2022/05/03 09:48:56;;;;;;;;;30.75;30.00;;;;;16.27;46.56;101388.00;5066512;28;45470;-73
2022/05/03 09:51:25;;;;;;;;;32.50;27.00;;;;;16.33;46.08;101384.13;5059084;28;45420;-73
2022/05/03 09:53:58;;;;;;;;;30.75;28.00;;;;;16.38;46.17;101375.84;5057459;28;45556;-73
2022/05/03 09:56:27;;;;;;;;;29.25;27.00;;;;;16.52;46.12;101384.13;5070881;28;45392;-73
2022/05/03 09:58:59;;;;;;;;;31.75;25.50;;;;;16.57;45.32;101383.91;5078090;27;45455;-73
2022/05/03 10:01:25;;;;;;;;;31.50;30.00;;;;;16.66;45.26;101392.44;5066589;28;45509;-73
2022/05/03 10:03:51;;;;;;;;;27.75;26.50;;;;;16.72;44.98;101391.25;5072422;27;45583;-73
2022/05/03 10:06:20;;;;;;;;;27.50;27.50;;;;;16.77;44.90;101374.88;5060648;28;45499;-73
2022/05/03 10:08:48;;;;;;;;;28.75;25.00;;;;;16.90;44.91;101392.25;5066506;28;45670;-73
2022/05/03 10:11:16;;;;;;;;;31.25;29.75;;;;;16.92;44.33;101376.84;5060332;28;45303;-73
2022/05/03 10:13:41;;;;;;;;;26.50;24.25;;;;;16.98;44.29;101375.69;5067376;27;45725;-73
2022/05/03 10:21:40;;;;;;;;;24.00;23.75;;;;;17.18;43.94;101377.41;5065381;28;46979;-71
2022/05/03 10:24:10;;;;;;;;;28.25;28.00;;;;;17.25;43.24;101375.28;5074755;28;45240;-72
2022/05/03 10:26:55;;;;;;;;;28.25;26.50;;;;;17.28;43.29;101373.28;5058414;28;47168;-75
2022/05/03 10:29:22;;;;;;;;;17.50;15.25;;;;;17.29;43.45;101361.56;5070146;28;45541;-74
2022/05/03 10:31:55;;;;;;;;;24.00;21.75;;;;;17.43;43.32;101371.66;5065700;28;45497;-73
2022/05/03 10:34:39;;;;;;;;;24.25;23.25;;;;;17.51;43.08;101376.66;5062450;28;45313;-73
2022/05/03 10:37:10;;;;;;;;;27.75;27.00;;;;;17.53;43.13;101366.66;5069410;28;45441;-73
2022/05/03 10:39:51;;;;;;;;;25.25;24.00;;;;;17.59;43.23;101356.41;5072067;28;45396;-73
2022/05/03 10:42:21;;;;;;;;;26.50;25.25;;;;;17.70;42.86;101369.34;5074599;28;45318;-73
2022/05/03 10:44:57;;;;;;;;;25.75;25.50;;;;;17.70;42.49;101363.06;5060419;28;46752;-72
2022/05/03 10:47:48;;;;;;;;;27.00;26.25;;;;;17.70;42.49;101368.47;5058242;28;47089;-73
2022/05/03 10:50:16;;;;;;;;;26.00;23.75;;;;;17.71;42.60;101363.00;5058009;28;45269;-72
2022/05/03 10:52:54;;;;;;;;;28.25;26.00;;;;;17.74;42.29;101354.72;5069594;28;45407;-72
2022/05/03 10:55:19;;;;;;;;;24.75;22.50;;;;;17.76;42.27;101360.06;5068985;28;45637;-65
2022/05/03 10:58:24;;;;;;;;;27.25;24.75;;;;;17.86;42.51;101360.41;5062600;28;46181;-66
2022/05/03 11:01:21;;;;;;;;;32.00;29.00;;;;;17.87;41.88;101367.59;5071097;28;45475;-65
2022/05/03 11:03:47;;;;;;;;;26.50;25.00;;;;;17.93;42.02;101356.50;5059633;28;45632;-66
2022/05/03 11:06:18;;;;;;;;;26.25;25.00;;;;;17.97;41.99;101352.66;5060408;28;45772;-66
2022/05/03 11:09:09;;;;;;;;;21.75;20.50;;;;;18.05;42.22;101353.13;5058213;28;45683;-66
2022/05/03 11:11:37;;;;;;;;;24.00;22.75;;;;;18.14;41.93;101343.63;5063485;28;45648;-66
2022/05/03 11:14:18;;;;;;;;;30.00;25.75;;;;;18.19;41.57;101346.09;5065238;28;45727;-66
2022/05/03 11:17:05;;;;;;;;;26.50;24.25;;;;;18.22;41.04;101337.81;5059027;28;45906;-66
2022/05/03 11:19:36;;;;;;;;;26.25;19.50;;;;;18.23;41.33;101336.88;5060654;28;46080;-67
2022/05/03 11:22:08;;;;;;;;;23.50;23.50;;;;;18.22;41.27;101346.78;5073900;28;45932;-66
2022/05/03 11:24:33;;;;;;;;;19.50;19.50;;;;;18.24;41.48;101331.38;5063744;28;45535;-66
2022/05/03 11:27:01;;;;;;;;;26.25;20.50;;;;;18.33;41.22;101344.38;5065839;28;45416;-66
2022/05/03 11:29:28;;;;;;;;;26.50;23.25;;;;;18.38;41.21;101343.25;5058223;28;46319;-66
2022/05/03 11:31:54;;;;;;;;;21.00;17.50;;;;;18.44;40.58;101342.91;5070386;28;46014;-65
2022/05/03 11:34:20;;;;;;;;;22.75;21.00;;;;;18.45;40.60;101328.44;5072582;28;45588;-66
2022/05/03 11:36:47;;;;;;;;;24.50;21.75;;;;;18.53;40.73;101337.00;5067305;28;45478;-66
2022/05/03 11:39:14;;;;;;;;;26.50;24.25;;;;;18.57;40.52;101333.13;5064039;28;46464;-65
2022/05/03 11:41:40;;;;;;;;;27.00;25.75;;;;;18.59;40.31;101331.22;5060781;28;45641;-66
2022/05/03 11:44:05;;;;;;;;;20.50;19.50;;;;;18.64;40.58;101320.16;5071313;28;45474;-65
2022/05/03 11:46:31;;;;;;;;;21.75;21.25;;;;;18.70;40.39;101327.91;5063931;28;45612;-66
2022/05/03 11:49:05;;;;;;;;;22.25;21.00;;;;;18.73;40.15;101325.03;5071600;28;48444;-66
2022/05/03 11:57:07;;;;;;;;;21.00;18.25;;;;;18.86;39.82;101312.59;5068328;28;45774;-66
2022/05/03 11:59:33;;;;;;;;;24.50;24.00;;;;;18.87;40.01;101316.16;5059013;28;45478;-66
2022/05/03 12:02:21;;;;;;;;;24.50;22.25;;;;;18.87;39.79;101311.59;5057858;28;45714;-66